createdAt,value
2018-12-03T00:02:27.778Z,8.33
2018-12-03T00:04:55.859Z,6.83
2018-12-03T00:07:23.994Z,6.73
2018-12-03T00:09:52.129Z,4.93
2018-12-03T00:12:20.255Z,4.30
2018-12-03T00:14:48.418Z,3.00
2018-12-03T00:17:16.528Z,3.10
2018-12-03T00:19:44.565Z,2.77
2018-12-03T00:22:12.753Z,2.87
2018-12-03T00:24:40.817Z,2.40
2018-12-03T00:27:08.898Z,2.57
2018-12-03T00:29:37.009Z,3.67
2018-12-03T00:32:05.430Z,3.43
2018-12-03T00:34:33.532Z,3.47
2018-12-03T00:37:01.594Z,3.70
2018-12-03T00:39:29.738Z,3.27
2018-12-03T00:41:57.862Z,4.73
2018-12-03T00:44:25.932Z,5.50
2018-12-03T00:46:54.079Z,5.73
2018-12-03T00:49:22.160Z,6.53
2018-12-03T00:51:50.282Z,5.20
2018-12-03T00:54:18.343Z,4.37
2018-12-03T00:56:46.417Z,4.10
2018-12-03T00:59:14.458Z,3.80
2018-12-03T01:01:42.561Z,2.70
2018-12-03T01:04:10.621Z,2.57
2018-12-03T01:06:38.688Z,3.07
2018-12-03T01:09:08.536Z,2.90
2018-12-03T01:11:37.115Z,2.97
2018-12-03T01:14:06.400Z,3.20
2018-12-03T01:16:33.243Z,3.00
2018-12-03T01:19:01.317Z,2.87
2018-12-03T01:21:29.339Z,2.93
2018-12-03T01:23:57.496Z,2.93
2018-12-03T01:26:25.630Z,3.03
2018-12-03T01:28:53.680Z,2.97
2018-12-03T01:31:21.738Z,2.57
2018-12-03T01:33:49.819Z,3.10
2018-12-03T01:36:17.894Z,3.27
2018-12-03T01:38:46.043Z,2.90
2018-12-03T01:41:14.157Z,2.90
2018-12-03T01:43:42.212Z,3.00
2018-12-03T01:46:10.263Z,3.73
2018-12-03T01:48:38.388Z,2.80
2018-12-03T01:51:06.425Z,3.20
2018-12-03T01:53:34.506Z,3.60
2018-12-03T01:56:02.583Z,4.77
2018-12-03T01:58:30.723Z,4.80
2018-12-03T02:00:58.838Z,5.33
2018-12-03T02:03:26.942Z,4.63
2018-12-03T02:05:54.969Z,5.10
2018-12-03T02:08:24.059Z,3.80
2018-12-03T02:10:52.162Z,4.63
2018-12-03T02:13:20.229Z,3.70
2018-12-03T02:15:48.274Z,3.47
2018-12-03T02:18:16.348Z,3.23
2018-12-03T02:20:44.754Z,2.73
2018-12-03T02:23:12.818Z,2.67
2018-12-03T02:25:40.878Z,3.43
2018-12-03T02:28:08.964Z,2.90
2018-12-03T02:30:37.059Z,2.60
2018-12-03T02:33:05.210Z,3.10
2018-12-03T02:35:33.335Z,5.40
2018-12-03T02:38:01.468Z,6.60
2018-12-03T02:40:29.529Z,7.03
2018-12-03T02:42:57.633Z,7.60
2018-12-03T02:45:25.674Z,5.83
2018-12-03T02:47:53.737Z,5.23
2018-12-03T02:50:21.841Z,5.50
2018-12-03T02:52:49.880Z,4.33
2018-12-03T02:55:17.957Z,4.47
2018-12-03T02:57:46.021Z,3.20
2018-12-03T03:00:14.831Z,2.80
2018-12-03T03:02:43.280Z,3.33
2018-12-03T03:05:12.531Z,3.23
2018-12-03T03:07:41.175Z,2.73
2018-12-03T03:10:11.767Z,2.07
2018-12-03T03:12:39.973Z,1.77
2018-12-03T03:15:10.142Z,1.50
2018-12-03T03:17:38.672Z,1.90
2018-12-03T03:20:08.451Z,1.77
2018-12-03T03:22:36.627Z,1.90
2018-12-03T03:25:04.867Z,1.60
2018-12-03T03:27:32.912Z,1.47
2018-12-03T03:30:01.080Z,1.67
2018-12-03T03:32:29.152Z,1.90
2018-12-03T03:34:57.219Z,1.80
2018-12-03T03:37:25.364Z,1.40
2018-12-03T03:39:53.380Z,1.67
2018-12-03T03:42:21.461Z,1.60
2018-12-03T03:44:49.546Z,1.77
2018-12-03T03:47:17.595Z,1.87
2018-12-03T03:49:45.728Z,2.40
2018-12-03T03:52:13.730Z,2.03
2018-12-03T03:54:41.791Z,2.30
2018-12-03T03:57:09.903Z,2.67
2018-12-03T03:59:37.944Z,3.27
2018-12-03T04:02:06.171Z,3.17
2018-12-03T04:04:34.225Z,3.17
2018-12-03T04:07:02.291Z,3.67
2018-12-03T04:09:30.355Z,3.13
2018-12-03T04:11:58.423Z,3.57
2018-12-03T04:14:26.675Z,3.87
2018-12-03T04:16:54.764Z,3.40
2018-12-03T04:19:22.848Z,3.57
2018-12-03T04:21:50.961Z,3.70
2018-12-03T04:24:19.104Z,3.90
2018-12-03T04:26:47.175Z,4.10
2018-12-03T04:29:15.241Z,4.43
2018-12-03T04:31:43.315Z,3.80
2018-12-03T04:34:11.382Z,4.47
2018-12-03T04:36:39.459Z,4.40
2018-12-03T04:39:08.338Z,4.27
2018-12-03T04:41:36.440Z,4.70
2018-12-03T04:44:04.851Z,4.63
2018-12-03T04:46:32.933Z,4.40
2018-12-03T04:49:01.977Z,4.33
2018-12-03T04:51:30.053Z,4.60
2018-12-03T04:53:58.139Z,4.00
2018-12-03T04:56:26.176Z,4.10
2018-12-03T04:58:54.251Z,3.80
2018-12-03T05:01:22.341Z,5.43
2018-12-03T05:03:50.435Z,4.83
2018-12-03T05:06:18.484Z,4.17
2018-12-03T05:08:46.545Z,4.17
2018-12-03T05:11:14.605Z,4.67
2018-12-03T05:13:42.687Z,4.53
2018-12-03T05:16:10.770Z,4.40
2018-12-03T05:18:38.853Z,4.17
2018-12-03T05:21:06.894Z,3.93
2018-12-03T05:23:35.088Z,4.70
2018-12-03T05:26:03.181Z,4.23
2018-12-03T05:28:31.218Z,3.70
2018-12-03T05:30:59.364Z,3.60
2018-12-03T05:33:27.476Z,3.53
2018-12-03T05:35:55.580Z,3.90
2018-12-03T05:38:23.601Z,3.80
2018-12-03T05:40:51.689Z,3.93
2018-12-03T05:43:19.830Z,4.13
2018-12-03T05:45:47.972Z,2.87
2018-12-03T05:48:16.737Z,3.10
2018-12-03T05:50:44.851Z,4.00
2018-12-03T05:53:13.137Z,3.63
2018-12-03T05:55:41.260Z,3.10
2018-12-03T05:58:09.309Z,3.43
2018-12-03T06:00:37.438Z,3.87
2018-12-03T06:03:05.888Z,2.80
2018-12-03T06:05:33.960Z,3.80
2018-12-03T06:08:02.130Z,3.37
2018-12-03T06:10:30.218Z,3.63
2018-12-03T06:12:58.275Z,3.60
2018-12-03T06:15:26.359Z,3.60
2018-12-03T06:17:54.391Z,3.50
2018-12-03T06:20:23.023Z,3.47
2018-12-03T06:22:52.783Z,3.23
2018-12-03T06:25:23.579Z,3.50
2018-12-03T06:27:51.991Z,3.47
2018-12-03T06:30:21.550Z,3.67
2018-12-03T06:32:49.679Z,3.47
2018-12-03T06:35:18.344Z,4.00
2018-12-03T06:37:46.907Z,4.27
2018-12-03T06:40:20.107Z,3.77
2018-12-03T06:42:48.282Z,3.30
2018-12-03T06:45:17.347Z,3.63
2018-12-03T06:47:48.538Z,3.70
2018-12-03T06:50:16.683Z,3.43
2018-12-03T06:52:44.735Z,3.23
2018-12-03T06:55:12.812Z,3.53
2018-12-03T06:57:40.858Z,3.70
2018-12-03T07:00:11.940Z,3.47
2018-12-03T07:02:40.051Z,3.90
2018-12-03T07:05:09.366Z,3.53
2018-12-03T07:07:37.527Z,4.43
2018-12-03T07:10:10.800Z,3.73
2018-12-03T07:12:38.837Z,3.53
2018-12-03T07:15:08.919Z,3.80
2018-12-03T07:17:37.014Z,3.77
2018-12-03T07:20:10.170Z,3.20
2018-12-03T07:25:22.665Z,3.53
2018-12-03T07:27:50.781Z,3.57
2018-12-03T07:30:20.753Z,3.47
2018-12-03T07:32:49.592Z,3.90
2018-12-03T07:35:19.514Z,3.57
2018-12-03T07:37:48.504Z,3.23
2018-12-03T07:40:16.620Z,3.57
2018-12-03T07:42:44.650Z,4.00
2018-12-03T07:45:16.177Z,3.47
2018-12-03T07:47:44.374Z,3.63
2018-12-03T07:50:13.586Z,4.17
2018-12-03T07:52:41.671Z,4.37
2018-12-03T07:55:12.838Z,4.20
2018-12-03T07:57:42.915Z,5.20
2018-12-03T08:00:13.695Z,4.63
2018-12-03T08:02:41.740Z,4.40
2018-12-03T08:05:10.684Z,4.40
2018-12-03T08:07:38.748Z,4.73
2018-12-03T08:10:10.047Z,4.37
2018-12-03T08:12:38.150Z,4.10
2018-12-03T08:15:11.352Z,4.53
2018-12-03T08:17:39.442Z,4.57
2018-12-03T08:21:15.387Z,4.53
2018-12-03T08:23:50.383Z,3.77
2018-12-03T08:26:18.533Z,4.10
2018-12-03T08:28:46.657Z,4.27
2018-12-03T08:31:14.705Z,5.03
2018-12-03T08:33:42.816Z,3.90
2018-12-03T08:36:10.866Z,3.90
2018-12-03T08:38:39.486Z,3.73
2018-12-03T08:41:07.924Z,3.70
2018-12-03T08:43:36.028Z,3.77
2018-12-03T08:46:06.228Z,3.50
2018-12-03T08:48:37.106Z,3.57
2018-12-03T08:51:05.811Z,3.80
2018-12-03T08:53:34.067Z,3.50
2018-12-03T08:56:02.207Z,3.10
2018-12-03T08:58:30.421Z,3.97
2018-12-03T09:00:58.515Z,3.43
2018-12-03T09:04:31.667Z,3.50
2018-12-03T09:06:59.737Z,3.43
2018-12-03T09:09:27.850Z,3.90
2018-12-03T09:11:55.990Z,3.00
2018-12-03T09:14:28.703Z,3.43
2018-12-03T09:17:02.287Z,3.43
2018-12-03T09:19:25.572Z,3.60
2018-12-03T09:22:00.771Z,3.30
2018-12-03T09:24:28.814Z,3.23
2018-12-03T09:26:57.035Z,3.33
2018-12-03T09:29:25.089Z,3.40
2018-12-03T09:31:53.151Z,3.07
2018-12-03T09:34:21.235Z,3.60
2018-12-03T09:36:49.296Z,3.03
2018-12-03T09:39:17.923Z,3.30
2018-12-03T09:41:47.411Z,2.90
2018-12-03T09:44:15.466Z,3.10
2018-12-03T09:46:43.586Z,3.13
2018-12-03T09:49:11.702Z,3.13
2018-12-03T09:51:39.786Z,3.33
2018-12-03T09:54:09.191Z,3.10
2018-12-03T09:56:54.474Z,2.67
2018-12-03T09:59:23.988Z,2.47
2018-12-03T10:01:54.916Z,2.53
2018-12-03T10:04:29.181Z,2.60
2018-12-03T10:06:56.163Z,2.60
2018-12-03T10:09:24.275Z,3.20
2018-12-03T10:11:57.197Z,2.53
2018-12-03T10:14:25.290Z,2.40
2018-12-03T10:16:53.482Z,3.57
2018-12-03T10:21:30.364Z,2.40
2018-12-03T10:23:58.506Z,2.33
2018-12-03T10:26:26.711Z,2.60
2018-12-03T10:28:55.002Z,1.90
2018-12-03T10:31:23.156Z,2.20
2018-12-03T10:33:51.333Z,2.07
2018-12-03T10:36:19.507Z,1.83
2018-12-03T10:38:48.384Z,2.33
2018-12-03T10:41:23.784Z,2.33
2018-12-03T10:43:52.088Z,2.43
2018-12-03T10:46:20.287Z,2.00
2018-12-03T10:48:48.598Z,2.13
2018-12-03T10:51:17.659Z,2.00
2018-12-03T10:53:45.927Z,2.00
2018-12-03T10:56:14.194Z,2.07
2018-12-03T10:58:44.258Z,1.83
2018-12-03T11:01:19.159Z,1.73
2018-12-03T11:03:52.745Z,1.63
2018-12-03T11:06:22.404Z,1.70
2018-12-03T11:08:50.941Z,2.10
2018-12-03T11:11:19.242Z,2.30
2018-12-03T11:13:47.480Z,1.80
2018-12-03T11:16:36.807Z,1.60
2018-12-03T11:19:06.428Z,1.40
2018-12-03T11:21:34.779Z,1.70
2018-12-03T11:24:03.175Z,1.53
2018-12-03T11:26:33.357Z,1.67
2018-12-03T11:29:02.698Z,1.83
2018-12-03T11:31:32.379Z,1.70
2018-12-03T11:34:00.619Z,1.53
2018-12-03T11:36:32.380Z,1.60
2018-12-03T11:39:12.490Z,1.43
2018-12-03T11:41:40.684Z,1.60
2018-12-03T11:51:14.425Z,0.90
2018-12-03T11:53:42.582Z,1.17
2018-12-03T11:56:10.847Z,0.90
2018-12-03T11:58:39.039Z,0.80
2018-12-03T12:01:07.391Z,0.90
2018-12-03T12:03:42.824Z,0.80
2018-12-03T12:06:11.103Z,0.60
2018-12-03T12:08:39.331Z,1.03
2018-12-03T12:11:07.459Z,1.00
2018-12-03T12:13:35.839Z,0.73
2018-12-03T12:16:04.063Z,0.60
2018-12-03T12:18:32.217Z,0.70
2018-12-03T12:21:00.351Z,0.90
2018-12-03T12:23:28.500Z,0.90
2018-12-03T12:25:56.621Z,0.97
2018-12-03T12:28:24.864Z,0.80
2018-12-03T12:30:53.112Z,0.80
2018-12-03T12:33:21.305Z,0.80
2018-12-03T12:35:49.432Z,0.70
2018-12-03T12:38:17.679Z,0.90
2018-12-03T12:40:45.857Z,0.90
2018-12-03T12:43:14.046Z,0.80
2018-12-03T12:45:46.450Z,1.00
2018-12-03T12:48:14.618Z,1.07
2018-12-03T12:50:42.780Z,0.70
2018-12-03T12:53:10.934Z,0.60
2018-12-03T12:55:39.118Z,1.07
2018-12-03T12:58:07.335Z,0.90
2018-12-03T13:00:35.468Z,1.00
2018-12-03T13:03:03.670Z,0.80
2018-12-03T13:05:31.827Z,0.80
2018-12-03T13:07:59.987Z,0.90
2018-12-03T13:10:28.163Z,0.70
2018-12-03T13:12:56.332Z,1.07
2018-12-03T13:15:24.554Z,0.77
2018-12-03T13:17:52.867Z,1.10
2018-12-03T13:20:21.100Z,1.03
2018-12-03T13:22:49.344Z,1.00
2018-12-03T13:25:18.984Z,1.50
2018-12-03T13:27:48.595Z,0.77
2018-12-03T13:30:17.397Z,1.20
2018-12-03T13:32:46.371Z,1.20
2018-12-03T13:35:14.592Z,1.00
2018-12-03T13:37:42.813Z,1.63
2018-12-03T13:40:13.512Z,1.10
2018-12-03T13:42:41.742Z,1.40
2018-12-03T13:45:13.467Z,1.57
2018-12-03T13:47:42.066Z,1.10
2018-12-03T13:50:12.976Z,1.13
2018-12-03T13:52:41.486Z,1.10
2018-12-03T13:55:11.885Z,1.30
2018-12-03T13:57:40.558Z,1.30
2018-12-03T14:00:13.574Z,1.43
2018-12-03T14:02:42.139Z,1.33
2018-12-03T14:05:12.871Z,1.60
2018-12-03T14:07:50.621Z,1.67
2018-12-03T14:10:33.802Z,2.20
2018-12-03T14:13:12.817Z,1.37
2018-12-03T14:15:54.495Z,1.80
2018-12-03T14:18:27.727Z,1.73
2018-12-03T14:21:01.200Z,1.73
2018-12-03T14:23:33.334Z,1.90
2018-12-03T14:26:01.463Z,1.40
2018-12-03T14:28:29.699Z,2.40
2018-12-03T14:30:57.883Z,1.97
2018-12-03T14:33:26.202Z,1.57
2018-12-03T14:35:55.178Z,1.63
2018-12-03T14:38:23.353Z,1.53
2018-12-03T14:40:53.080Z,2.07
2018-12-03T14:43:21.229Z,1.80
2018-12-03T14:45:49.465Z,1.77
2018-12-03T14:48:17.613Z,1.93
2018-12-03T14:50:45.758Z,1.20
2018-12-03T14:53:13.948Z,2.10
2018-12-03T14:55:42.175Z,1.70
2018-12-03T14:58:10.303Z,1.97
2018-12-03T15:00:38.490Z,1.77
2018-12-03T15:03:06.668Z,1.80
2018-12-03T15:05:34.862Z,1.97
2018-12-03T15:08:03.023Z,2.07
2018-12-03T15:10:31.144Z,1.83
2018-12-03T15:12:59.388Z,5.43
2018-12-03T15:15:27.519Z,2.00
2018-12-03T15:17:55.704Z,1.40
2018-12-03T15:20:23.844Z,2.03
2018-12-03T15:22:51.992Z,2.10
2018-12-03T15:25:20.137Z,2.00
2018-12-03T15:27:48.314Z,1.80
2018-12-03T15:30:16.502Z,1.67
2018-12-03T15:32:44.717Z,1.63
2018-12-03T15:35:12.934Z,2.07
2018-12-03T15:37:41.052Z,2.33
2018-12-03T15:40:13.155Z,2.00
2018-12-03T15:42:41.314Z,3.17
2018-12-03T15:45:10.452Z,2.00
2018-12-03T15:47:38.575Z,2.10
2018-12-03T15:50:07.245Z,2.27
2018-12-03T15:52:35.550Z,2.63
2018-12-03T15:55:04.281Z,2.73
2018-12-03T15:57:32.452Z,2.53
2018-12-03T16:00:00.573Z,2.63
2018-12-03T16:02:28.807Z,2.33
2018-12-03T16:04:56.946Z,2.67
2018-12-03T16:07:25.260Z,2.80
2018-12-03T16:09:53.494Z,2.20
2018-12-03T16:12:22.698Z,2.63
2018-12-03T16:14:50.878Z,2.73
2018-12-03T16:17:20.259Z,2.53
2018-12-03T16:19:48.734Z,2.20
2018-12-03T16:22:16.996Z,2.80
2018-12-03T16:24:45.235Z,3.00
2018-12-03T16:27:13.465Z,2.97
2018-12-03T16:29:41.701Z,2.73
2018-12-03T16:32:09.834Z,2.50
2018-12-03T16:34:38.028Z,2.77
2018-12-03T16:37:07.269Z,2.40
2018-12-03T16:39:35.667Z,1.93
2018-12-03T16:42:03.883Z,2.70
2018-12-03T16:44:32.042Z,2.70
2018-12-03T16:47:00.251Z,2.40
2018-12-03T16:49:28.470Z,2.90
2018-12-03T16:51:56.834Z,2.20
2018-12-03T16:54:25.027Z,2.70
2018-12-03T16:56:53.199Z,2.80
2018-12-03T16:59:21.539Z,2.73
2018-12-03T17:01:49.683Z,2.43
2018-12-03T17:04:17.917Z,2.73
2018-12-03T17:06:46.118Z,2.63
2018-12-03T17:09:14.267Z,2.50
2018-12-03T17:11:42.966Z,2.40
2018-12-03T17:14:11.215Z,2.87
2018-12-03T17:16:39.436Z,2.80
2018-12-03T17:19:07.591Z,2.93
2018-12-03T17:21:45.536Z,4.00
2018-12-03T17:24:19.795Z,3.57
2018-12-03T17:26:48.013Z,3.70
2018-12-03T17:29:16.218Z,3.90
2018-12-03T17:31:44.359Z,3.40
2018-12-03T17:34:12.585Z,3.23
2018-12-03T17:36:40.807Z,3.13
2018-12-03T17:39:09.242Z,3.10
2018-12-03T17:41:37.351Z,3.30
2018-12-03T17:44:06.230Z,3.03
2018-12-03T17:46:35.429Z,3.33
2018-12-03T17:49:03.638Z,2.83
2018-12-03T17:51:31.751Z,3.23
2018-12-03T17:53:59.876Z,3.17
2018-12-03T17:56:28.134Z,3.20
2018-12-03T17:58:56.345Z,3.23
2018-12-03T18:01:24.534Z,2.40
2018-12-03T18:03:52.709Z,2.50
2018-12-03T18:06:20.879Z,2.60
2018-12-03T18:08:49.062Z,3.30
2018-12-03T18:11:17.237Z,3.33
2018-12-03T18:13:45.465Z,3.17
2018-12-03T18:16:13.664Z,3.07
2018-12-03T18:18:41.851Z,3.70
2018-12-03T18:21:09.999Z,3.83
2018-12-03T18:23:38.252Z,3.63
2018-12-03T18:26:06.651Z,2.90
2018-12-03T18:28:34.851Z,3.53
2018-12-03T18:31:02.994Z,3.37
2018-12-03T18:33:36.917Z,3.93
2018-12-03T18:36:14.923Z,3.90
2018-12-03T18:38:44.140Z,4.80
2018-12-03T18:41:12.352Z,4.10
2018-12-03T18:43:40.473Z,4.47
2018-12-03T18:46:08.618Z,4.43
2018-12-03T18:48:36.844Z,4.60
2018-12-03T18:51:05.490Z,4.60
2018-12-03T18:53:33.643Z,3.63
2018-12-03T18:56:01.996Z,4.70
2018-12-03T18:58:37.485Z,4.93
2018-12-03T19:01:05.805Z,4.87
2018-12-03T19:03:34.195Z,4.87
2018-12-03T19:06:03.554Z,4.10
2018-12-03T19:08:32.748Z,3.63
2018-12-03T19:11:00.970Z,3.70
2018-12-03T19:13:29.090Z,3.70
2018-12-03T19:15:57.311Z,3.73
2018-12-03T19:18:25.527Z,3.30
2018-12-03T19:20:53.796Z,3.90
2018-12-03T19:23:22.081Z,3.77
2018-12-03T19:25:50.279Z,3.23
2018-12-03T19:28:18.529Z,3.77
2018-12-03T19:30:46.671Z,3.97
2018-12-03T19:33:14.853Z,3.37
2018-12-03T19:35:43.018Z,3.90
2018-12-03T19:38:11.376Z,3.00
2018-12-03T19:40:39.717Z,4.07
2018-12-03T19:43:07.968Z,3.83
2018-12-03T19:45:36.143Z,4.07
2018-12-03T19:48:04.279Z,3.97
2018-12-03T19:50:32.470Z,4.13
2018-12-03T19:53:00.751Z,3.80
2018-12-03T19:55:29.362Z,3.33
2018-12-03T19:58:04.739Z,2.80
2018-12-03T20:00:32.943Z,3.17
2018-12-03T20:03:02.143Z,3.40
2018-12-03T20:05:30.299Z,3.40
2018-12-03T20:07:58.600Z,3.43
2018-12-03T20:10:26.768Z,3.40
2018-12-03T20:12:55.934Z,3.50
2018-12-03T20:15:24.154Z,3.43
2018-12-03T20:17:53.354Z,3.67
2018-12-03T20:20:26.523Z,4.00
2018-12-03T20:23:00.268Z,3.57
2018-12-03T20:25:39.423Z,3.43
2018-12-03T20:28:11.831Z,3.40
2018-12-03T20:30:47.189Z,3.40
2018-12-03T20:33:18.709Z,4.20
2018-12-03T20:36:06.678Z,3.63
2018-12-03T20:38:39.797Z,3.60
2018-12-03T20:41:44.932Z,3.80
2018-12-03T20:44:51.812Z,3.50
2018-12-03T20:47:23.294Z,3.30
2018-12-03T20:49:59.469Z,3.73
2018-12-03T20:52:29.630Z,3.13
2018-12-03T20:55:01.416Z,3.20
2018-12-03T20:57:29.789Z,3.20
2018-12-03T20:59:59.895Z,2.90
2018-12-03T21:02:28.067Z,3.27
2018-12-03T21:04:56.215Z,3.37
2018-12-03T21:07:24.373Z,3.30
2018-12-03T21:09:52.550Z,3.60
2018-12-03T21:12:20.704Z,3.00
2018-12-03T21:14:48.851Z,2.70
2018-12-03T21:17:17.793Z,3.67
2018-12-03T21:19:49.439Z,3.70
2018-12-03T21:22:17.718Z,3.70
2018-12-03T21:24:45.897Z,3.27
2018-12-03T21:27:14.098Z,2.63
2018-12-03T21:29:42.235Z,2.87
2018-12-03T21:32:10.476Z,2.87
2018-12-03T21:34:38.652Z,2.77
2018-12-03T21:37:06.883Z,2.97
2018-12-03T21:39:35.045Z,3.50
2018-12-03T21:42:03.340Z,3.63
2018-12-03T21:44:31.546Z,2.53
2018-12-03T21:46:59.725Z,2.80
2018-12-03T21:49:27.847Z,2.77
2018-12-03T21:51:55.978Z,3.47
2018-12-03T21:57:58.763Z,4.03
2018-12-03T22:00:26.955Z,3.60
2018-12-03T22:02:55.097Z,3.23
2018-12-03T22:05:29.077Z,3.43
2018-12-03T22:07:57.154Z,3.27
2018-12-03T22:10:25.357Z,3.27
2018-12-03T22:12:53.532Z,3.40
2018-12-03T22:15:21.653Z,2.87
2018-12-03T22:17:50.814Z,4.80
2018-12-03T22:20:18.982Z,3.70
2018-12-03T22:22:47.184Z,3.40
2018-12-03T22:25:15.273Z,2.97
2018-12-03T22:27:43.402Z,2.57
2018-12-03T22:30:11.666Z,3.60
2018-12-03T22:32:39.975Z,2.30
2018-12-03T22:35:08.083Z,2.90
2018-12-03T22:37:36.205Z,2.23
2018-12-03T22:40:05.246Z,2.70
2018-12-03T22:42:33.440Z,2.90
2018-12-03T22:45:01.641Z,2.90
2018-12-03T22:47:29.842Z,2.77
2018-12-03T22:49:57.989Z,2.23
2018-12-03T22:52:26.179Z,3.10
2018-12-03T22:54:55.346Z,3.27
2018-12-03T22:57:23.529Z,3.33
2018-12-03T22:59:51.721Z,3.20
2018-12-03T23:02:19.905Z,3.53
2018-12-03T23:04:48.186Z,3.10
2018-12-03T23:07:16.317Z,2.83
2018-12-03T23:09:44.535Z,3.23
2018-12-03T23:12:12.742Z,2.67
2018-12-03T23:14:40.847Z,2.97
2018-12-03T23:17:09.319Z,3.47
2018-12-03T23:19:37.533Z,2.90
2018-12-03T23:22:05.694Z,3.27
2018-12-03T23:24:33.853Z,2.70
2018-12-03T23:27:02.058Z,3.55
2018-12-03T23:29:30.207Z,3.03
2018-12-03T23:31:58.386Z,3.00
2018-12-03T23:34:26.591Z,2.07
2018-12-03T23:36:54.690Z,2.40
2018-12-03T23:39:22.909Z,2.63
2018-12-03T23:41:51.122Z,2.47
2018-12-03T23:44:19.292Z,2.30
2018-12-03T23:46:47.681Z,2.30
2018-12-03T23:49:15.905Z,1.80
2018-12-03T23:51:44.221Z,2.30
2018-12-03T23:54:12.402Z,2.27
2018-12-03T23:56:40.529Z,2.33
2018-12-03T23:59:09.633Z,2.20
